createdAt,value
2023-03-19T00:00:27.104Z,9.60
2023-03-19T00:02:53.869Z,5.50
2023-03-19T00:05:20.769Z,15.45
2023-03-19T00:07:47.638Z,8.95
2023-03-19T00:10:14.301Z,15.40
2023-03-19T00:12:41.490Z,6.68
2023-03-19T00:15:14.086Z,8.68
2023-03-19T00:17:41.785Z,12.40
2023-03-19T00:20:09.885Z,6.50
2023-03-19T00:22:36.594Z,6.15
2023-03-19T00:25:03.773Z,8.25
2023-03-19T00:27:30.642Z,4.88
2023-03-19T00:29:57.345Z,7.32
2023-03-19T00:32:23.960Z,7.25
2023-03-19T00:34:51.080Z,8.48
2023-03-19T00:37:18.285Z,6.68
2023-03-19T00:39:44.906Z,6.65
2023-03-19T00:42:11.921Z,9.50
2023-03-19T00:44:38.560Z,9.63
2023-03-19T00:47:06.949Z,11.43
2023-03-19T00:49:33.559Z,13.18
2023-03-19T00:52:00.370Z,7.45
2023-03-19T00:54:27.527Z,10.00
2023-03-19T00:56:54.408Z,12.40
2023-03-19T00:59:21.120Z,14.13
2023-03-19T01:01:47.829Z,11.38
2023-03-19T01:04:15.438Z,9.38
2023-03-19T01:06:42.132Z,8.50
2023-03-19T01:09:08.933Z,18.45
2023-03-19T01:11:36.032Z,7.07
2023-03-19T01:14:03.100Z,8.80
2023-03-19T01:16:29.739Z,10.13
2023-03-19T01:18:56.329Z,9.57
2023-03-19T01:21:23.149Z,10.70
2023-03-19T01:23:52.002Z,9.43
2023-03-19T01:26:19.663Z,11.68
2023-03-19T01:28:46.247Z,12.13
2023-03-19T01:31:12.876Z,10.40
2023-03-19T01:33:39.501Z,7.82
2023-03-19T01:36:06.859Z,10.60
2023-03-19T01:38:33.626Z,10.65
2023-03-19T01:41:00.365Z,4.70
2023-03-19T01:43:29.927Z,8.25
2023-03-19T01:46:07.354Z,5.90
2023-03-19T01:48:46.546Z,12.82
2023-03-19T01:51:16.765Z,7.50
2023-03-19T01:53:47.739Z,6.40
2023-03-19T01:56:15.862Z,7.53
2023-03-19T01:58:44.688Z,6.07
2023-03-19T02:01:11.493Z,7.28
2023-03-19T02:03:39.487Z,4.70
2023-03-19T02:06:06.710Z,6.55
2023-03-19T02:08:33.994Z,6.63
2023-03-19T02:11:01.412Z,5.90
2023-03-19T02:13:28.532Z,7.90
2023-03-19T02:15:55.385Z,9.93
2023-03-19T02:18:22.658Z,9.13
2023-03-19T02:20:59.235Z,11.18
2023-03-19T02:23:51.990Z,9.77
2023-03-19T02:26:21.723Z,10.57
2023-03-19T02:28:49.841Z,7.03
2023-03-19T02:31:18.349Z,7.28
2023-03-19T02:33:45.572Z,3.70
2023-03-19T02:36:17.435Z,4.53
2023-03-19T02:38:46.549Z,10.23
2023-03-19T02:41:13.165Z,9.00
2023-03-19T02:43:41.367Z,7.35
2023-03-19T02:46:12.144Z,13.32
2023-03-19T02:48:39.464Z,8.98
2023-03-19T02:51:06.902Z,12.18
2023-03-19T02:53:35.109Z,13.15
2023-03-19T02:56:02.276Z,17.35
2023-03-19T02:58:28.905Z,10.32
2023-03-19T03:00:55.571Z,9.88
2023-03-19T03:03:22.273Z,11.05
2023-03-19T03:05:48.867Z,8.10
2023-03-19T03:08:15.838Z,12.85
2023-03-19T03:10:42.728Z,12.13
2023-03-19T03:13:09.513Z,11.98
2023-03-19T03:15:36.267Z,10.52
2023-03-19T03:18:03.113Z,6.78
2023-03-19T03:20:30.019Z,10.45
2023-03-19T03:22:56.607Z,7.68
2023-03-19T03:25:23.513Z,8.02
2023-03-19T03:27:50.134Z,7.43
2023-03-19T03:30:17.090Z,8.02
2023-03-19T03:32:44.286Z,11.38
2023-03-19T03:35:10.942Z,7.90
2023-03-19T03:37:38.201Z,7.43
2023-03-19T03:40:08.505Z,8.90
2023-03-19T03:42:37.358Z,7.10
2023-03-19T03:45:04.946Z,7.65
2023-03-19T03:47:31.609Z,7.32
2023-03-19T03:49:58.506Z,10.02
2023-03-19T03:52:25.126Z,4.63
2023-03-19T03:54:51.789Z,6.28
2023-03-19T03:57:18.397Z,12.40
2023-03-19T03:59:44.974Z,8.55
2023-03-19T04:02:11.726Z,8.13
2023-03-19T04:04:38.484Z,6.95
2023-03-19T04:07:05.268Z,8.20
2023-03-19T04:09:32.197Z,5.90
2023-03-19T04:11:58.892Z,3.92
2023-03-19T04:14:25.588Z,6.22
2023-03-19T04:16:52.296Z,9.48
2023-03-19T04:19:19.274Z,16.08
2023-03-19T04:21:46.839Z,5.35
2023-03-19T04:24:14.392Z,5.30
2023-03-19T04:26:41.164Z,8.82
2023-03-19T04:29:10.992Z,8.77
2023-03-19T04:31:38.208Z,13.27
2023-03-19T04:34:05.955Z,12.52
2023-03-19T04:36:33.228Z,6.72
2023-03-19T04:39:00.005Z,8.57
2023-03-19T04:41:27.155Z,7.53
2023-03-19T04:43:53.758Z,19.35
2023-03-19T04:46:20.556Z,18.58
2023-03-19T04:48:47.226Z,22.58
2023-03-19T04:51:13.869Z,16.77
2023-03-19T04:53:40.837Z,15.13
2023-03-19T04:56:08.111Z,14.18
2023-03-19T04:58:35.268Z,16.73
2023-03-19T05:01:02.190Z,12.27
2023-03-19T05:03:28.984Z,13.10
2023-03-19T05:05:55.559Z,12.73
2023-03-19T05:08:22.299Z,8.13
2023-03-19T05:10:48.860Z,9.05
2023-03-19T05:13:16.107Z,10.25
2023-03-19T05:15:44.266Z,14.68
2023-03-19T05:18:11.951Z,5.20
2023-03-19T05:20:39.540Z,8.88
2023-03-19T05:23:06.573Z,7.80
2023-03-19T05:25:35.405Z,8.02
2023-03-19T05:28:03.352Z,10.90
2023-03-19T05:30:30.836Z,9.75
2023-03-19T05:32:59.726Z,10.05
2023-03-19T05:35:29.372Z,5.93
2023-03-19T05:37:56.328Z,11.23
2023-03-19T05:40:23.956Z,10.82
2023-03-19T05:42:51.201Z,14.75
2023-03-19T05:45:18.420Z,20.92
2023-03-19T05:47:48.600Z,12.48
2023-03-19T05:50:15.324Z,13.57
2023-03-19T05:52:42.167Z,13.65
2023-03-19T05:55:09.672Z,16.10
2023-03-19T05:57:36.481Z,10.65
2023-03-19T06:00:06.658Z,4.55
2023-03-19T06:02:34.863Z,11.15
2023-03-19T06:05:01.829Z,9.90
2023-03-19T06:07:28.563Z,12.50
2023-03-19T06:09:55.311Z,8.88
2023-03-19T06:12:22.214Z,9.48
2023-03-19T06:14:48.823Z,10.73
2023-03-19T06:17:15.906Z,12.93
2023-03-19T06:19:42.583Z,11.88
2023-03-19T06:22:09.232Z,8.38
2023-03-19T06:24:36.798Z,6.70
2023-03-19T06:27:03.918Z,7.00
2023-03-19T06:29:30.790Z,6.75
2023-03-19T06:31:58.256Z,14.00
2023-03-19T06:34:25.505Z,9.98
2023-03-19T06:36:53.799Z,8.18
2023-03-19T06:39:21.191Z,12.43
2023-03-19T06:41:47.969Z,12.70
2023-03-19T06:44:14.973Z,5.63
2023-03-19T06:46:41.751Z,10.65
2023-03-19T06:49:08.393Z,6.68
2023-03-19T06:51:34.995Z,9.73
2023-03-19T06:54:01.669Z,9.43
2023-03-19T06:56:29.447Z,11.48
2023-03-19T06:58:56.561Z,7.50
2023-03-19T07:01:23.536Z,9.40
2023-03-19T07:03:50.627Z,10.02
2023-03-19T07:06:17.371Z,7.97
2023-03-19T07:08:46.468Z,8.07
2023-03-19T07:11:14.430Z,7.75
2023-03-19T07:13:41.252Z,8.98
2023-03-19T07:16:08.858Z,7.55
2023-03-19T07:18:36.063Z,7.88
2023-03-19T07:21:03.258Z,8.38
2023-03-19T07:23:30.023Z,6.63
2023-03-19T07:25:56.890Z,14.55
2023-03-19T07:28:23.500Z,7.82
2023-03-19T07:30:53.116Z,11.93
2023-03-19T07:33:22.035Z,9.55
2023-03-19T07:35:49.083Z,12.35
2023-03-19T07:38:15.863Z,10.68
2023-03-19T07:40:51.401Z,6.45
2023-03-19T07:43:25.806Z,12.68
2023-03-19T07:45:52.904Z,8.73
2023-03-19T07:48:19.826Z,11.55
2023-03-19T07:50:46.537Z,12.70
2023-03-19T07:53:13.166Z,9.43
2023-03-19T07:55:39.892Z,9.70
2023-03-19T07:58:06.536Z,8.90
2023-03-19T08:00:33.533Z,12.65
2023-03-19T08:03:00.454Z,13.45
2023-03-19T08:05:27.307Z,8.98
2023-03-19T08:07:53.957Z,10.02
2023-03-19T08:10:20.733Z,11.02
2023-03-19T08:12:47.908Z,11.25
2023-03-19T08:15:14.807Z,8.73
2023-03-19T08:17:41.651Z,9.32
2023-03-19T08:20:16.572Z,10.40
2023-03-19T08:22:43.322Z,10.50
2023-03-19T08:25:10.730Z,8.20
2023-03-19T08:27:37.463Z,9.60
2023-03-19T08:30:06.395Z,11.10
2023-03-19T08:32:33.254Z,9.85
2023-03-19T08:35:00.393Z,6.72
2023-03-19T08:37:27.034Z,6.43
2023-03-19T08:39:53.983Z,8.90
2023-03-19T08:42:21.596Z,6.95
2023-03-19T08:44:48.973Z,6.90
2023-03-19T08:47:15.963Z,10.75
2023-03-19T08:49:42.670Z,6.28
2023-03-19T08:52:09.630Z,7.72
2023-03-19T08:54:36.953Z,7.38
2023-03-19T08:57:03.923Z,7.10
2023-03-19T08:59:33.775Z,6.72
2023-03-19T09:02:01.616Z,7.05
2023-03-19T09:04:28.862Z,8.07
2023-03-19T09:06:55.957Z,7.78
2023-03-19T09:09:24.632Z,10.60
2023-03-19T09:11:51.443Z,7.25
2023-03-19T09:14:20.112Z,8.63
2023-03-19T09:16:47.053Z,13.52
2023-03-19T09:19:13.804Z,8.38
2023-03-19T09:21:40.739Z,6.55
2023-03-19T09:24:07.651Z,8.32
2023-03-19T09:26:34.656Z,5.88
2023-03-19T09:29:02.240Z,3.88
2023-03-19T09:31:29.996Z,6.13
2023-03-19T09:33:57.066Z,4.50
2023-03-19T09:36:23.958Z,3.38
2023-03-19T09:38:50.753Z,4.03
2023-03-19T09:41:33.751Z,6.40
2023-03-19T09:44:16.291Z,4.25
2023-03-19T09:47:12.503Z,3.22
2023-03-19T09:49:44.241Z,3.55
2023-03-19T09:52:24.988Z,4.65
2023-03-19T09:54:55.207Z,2.67
2023-03-19T09:57:21.927Z,4.13
2023-03-19T09:59:49.213Z,2.50
2023-03-19T10:02:21.998Z,3.17
2023-03-19T10:05:09.696Z,4.03
2023-03-19T10:08:04.507Z,3.38
2023-03-19T10:10:49.788Z,3.35
2023-03-19T10:13:28.506Z,5.03
2023-03-19T10:15:56.181Z,2.42
2023-03-19T10:18:33.091Z,3.60
2023-03-19T10:21:05.763Z,12.38
2023-03-19T10:23:57.879Z,5.15
2023-03-19T10:26:30.441Z,3.83
2023-03-19T10:29:04.758Z,3.35
2023-03-19T10:31:52.504Z,6.20
2023-03-19T10:34:35.768Z,6.13
2023-03-19T10:37:14.632Z,6.80
2023-03-19T10:39:43.838Z,3.55
2023-03-19T10:42:37.983Z,1.85
2023-03-19T10:45:34.918Z,3.97
2023-03-19T10:48:03.715Z,2.38
2023-03-19T10:50:37.566Z,4.47
2023-03-19T10:53:37.086Z,6.78
2023-03-19T10:56:20.360Z,3.17
2023-03-19T10:59:05.962Z,5.15
2023-03-19T11:01:43.167Z,3.03
2023-03-19T11:04:23.242Z,5.22
2023-03-19T11:06:52.234Z,4.65
2023-03-19T11:09:29.484Z,4.57
2023-03-19T11:12:07.099Z,5.22
2023-03-19T11:14:44.626Z,11.98
2023-03-19T11:17:14.233Z,5.90
2023-03-19T11:19:42.558Z,3.50
2023-03-19T11:22:21.406Z,3.88
2023-03-19T11:25:01.584Z,4.53
2023-03-19T11:27:34.973Z,4.85
2023-03-19T11:30:22.131Z,3.63
2023-03-19T11:32:58.083Z,3.17
2023-03-19T11:35:55.760Z,2.70
2023-03-19T11:38:58.703Z,4.70
2023-03-19T11:41:43.865Z,3.95
2023-03-19T11:44:31.187Z,3.53
2023-03-19T11:47:26.221Z,2.45
2023-03-19T11:50:18.225Z,4.43
2023-03-19T11:52:48.929Z,3.22
2023-03-19T11:55:25.727Z,3.33
2023-03-19T11:57:55.383Z,5.50
2023-03-19T12:00:43.443Z,3.05
2023-03-19T12:03:44.116Z,3.47
2023-03-19T12:06:28.579Z,5.07
2023-03-19T12:09:21.590Z,2.33
2023-03-19T12:12:19.132Z,3.35
2023-03-19T12:14:53.335Z,4.90
2023-03-19T12:17:38.944Z,3.35
2023-03-19T12:20:36.501Z,3.55
2023-03-19T12:23:24.252Z,5.47
2023-03-19T12:26:04.659Z,2.72
2023-03-19T12:28:40.637Z,10.88
2023-03-19T12:31:10.650Z,7.28
2023-03-19T12:33:48.491Z,6.13
2023-03-19T12:36:26.399Z,3.75
2023-03-19T12:39:07.145Z,5.43
2023-03-19T12:41:40.076Z,4.38
2023-03-19T12:44:17.183Z,2.75
2023-03-19T12:46:59.307Z,5.70
2023-03-19T12:49:35.286Z,6.90
2023-03-19T12:52:19.123Z,2.55
2023-03-19T12:54:55.450Z,2.90
2023-03-19T12:57:38.657Z,6.25
2023-03-19T13:00:37.761Z,5.78
2023-03-19T13:03:18.928Z,4.10
2023-03-19T13:06:06.031Z,3.83
2023-03-19T13:08:58.017Z,4.72
2023-03-19T13:11:30.724Z,5.55
2023-03-19T13:14:04.260Z,2.25
2023-03-19T13:16:39.842Z,4.63
2023-03-19T13:19:32.472Z,4.00
2023-03-19T13:22:04.251Z,3.03
2023-03-19T13:24:38.817Z,1.65
2023-03-19T13:27:10.261Z,5.07
2023-03-19T13:29:39.125Z,7.82
2023-03-19T13:32:23.772Z,3.05
2023-03-19T13:34:50.624Z,3.75
2023-03-19T13:37:19.992Z,3.10
2023-03-19T13:39:48.632Z,3.28
2023-03-19T13:42:38.820Z,2.08
2023-03-19T13:45:34.693Z,2.38
2023-03-19T13:48:27.461Z,2.15
2023-03-19T13:51:28.031Z,3.83
2023-03-19T13:54:01.313Z,5.82
2023-03-19T13:56:30.576Z,3.25
2023-03-19T13:59:15.794Z,3.42
2023-03-19T14:01:47.587Z,3.78
2023-03-19T14:04:23.562Z,2.10
2023-03-19T14:07:12.599Z,4.07
2023-03-19T14:09:44.948Z,1.95
2023-03-19T14:12:23.375Z,3.53
2023-03-19T14:15:01.350Z,2.13
2023-03-19T14:17:35.650Z,3.45
2023-03-19T14:20:32.948Z,2.28
2023-03-19T14:23:03.753Z,4.72
2023-03-19T14:26:06.557Z,1.55
2023-03-19T14:28:45.247Z,6.25
2023-03-19T14:31:20.360Z,7.32
2023-03-19T14:34:02.884Z,5.75
2023-03-19T14:36:30.859Z,7.18
2023-03-19T14:39:00.760Z,3.72
2023-03-19T14:41:32.740Z,4.85
2023-03-19T14:47:17.121Z,1.63
2023-03-19T14:49:56.050Z,2.90
2023-03-19T14:52:25.860Z,3.72
2023-03-19T14:55:02.830Z,3.15
2023-03-19T14:57:35.450Z,2.95
2023-03-19T15:00:10.011Z,1.70
2023-03-19T15:02:51.746Z,2.92
2023-03-19T15:05:36.383Z,2.72
2023-03-19T15:08:05.906Z,4.63
2023-03-19T15:10:56.086Z,3.65
2023-03-19T15:14:00.399Z,3.72
2023-03-19T15:16:37.302Z,3.38
2023-03-19T15:19:07.312Z,5.28
2023-03-19T15:21:34.320Z,2.92
2023-03-19T15:24:00.991Z,3.78
2023-03-19T15:26:33.128Z,2.17
2023-03-19T15:29:00.200Z,2.83
2023-03-19T15:31:53.861Z,2.10
2023-03-19T15:34:29.736Z,3.72
2023-03-19T15:37:08.149Z,2.65
2023-03-19T15:39:40.061Z,3.00
2023-03-19T15:42:06.776Z,1.63
2023-03-19T15:44:46.334Z,2.10
2023-03-19T15:47:19.822Z,4.57
2023-03-19T15:50:14.373Z,2.65
2023-03-19T15:52:46.260Z,1.92
2023-03-19T15:55:15.679Z,6.40
2023-03-19T15:57:44.411Z,12.13
2023-03-19T16:00:14.135Z,5.60
2023-03-19T16:02:43.685Z,6.45
2023-03-19T16:05:43.505Z,3.63
2023-03-19T16:08:26.026Z,5.32
2023-03-19T16:10:53.342Z,3.33
2023-03-19T16:13:22.982Z,3.13
2023-03-19T16:16:06.052Z,2.42
2023-03-19T16:18:53.147Z,3.17
2023-03-19T16:21:38.784Z,2.55
2023-03-19T16:24:08.287Z,9.10
2023-03-19T16:26:43.567Z,5.45
2023-03-19T16:29:16.819Z,4.18
2023-03-19T16:31:58.529Z,3.35
2023-03-19T16:34:34.044Z,9.27
2023-03-19T16:37:01.430Z,13.05
2023-03-19T16:39:34.516Z,6.03
2023-03-19T16:42:13.263Z,6.85
2023-03-19T16:44:46.802Z,7.78
2023-03-19T16:47:16.564Z,14.20
2023-03-19T16:49:43.278Z,8.15
2023-03-19T16:52:15.902Z,6.68
2023-03-19T16:54:43.052Z,12.88
2023-03-19T16:57:15.374Z,9.90
2023-03-19T16:59:42.769Z,7.68
2023-03-19T17:02:14.133Z,15.23
2023-03-19T17:04:42.528Z,8.10
2023-03-19T17:07:10.039Z,9.65
2023-03-19T17:09:37.561Z,15.88
2023-03-19T17:12:06.809Z,14.05
2023-03-19T17:14:34.042Z,9.95
2023-03-19T17:17:01.195Z,11.57
2023-03-19T17:19:34.482Z,11.40
2023-03-19T17:22:01.644Z,15.38
2023-03-19T17:24:33.682Z,16.15
2023-03-19T17:27:03.183Z,12.23
2023-03-19T17:29:30.827Z,11.48
2023-03-19T17:32:01.913Z,14.82
2023-03-19T17:34:33.305Z,15.23
2023-03-19T17:37:02.248Z,17.43
2023-03-19T17:39:32.970Z,20.13
2023-03-19T17:41:59.895Z,14.40
2023-03-19T17:44:27.992Z,16.73
2023-03-19T17:46:56.482Z,17.83
2023-03-19T17:49:32.699Z,14.07
2023-03-19T17:51:59.725Z,16.70
2023-03-19T17:54:27.274Z,11.07
2023-03-19T17:56:55.026Z,11.15
2023-03-19T17:59:22.367Z,15.48
2023-03-19T18:01:49.203Z,23.50
2023-03-19T18:04:21.297Z,22.63
2023-03-19T18:06:56.736Z,16.63
2023-03-19T18:09:28.322Z,14.48
2023-03-19T18:11:55.200Z,21.13
2023-03-19T18:14:21.973Z,21.98
2023-03-19T18:16:48.840Z,15.70
2023-03-19T18:19:27.953Z,15.93
2023-03-19T18:21:54.552Z,22.25
2023-03-19T18:24:21.341Z,16.90
2023-03-19T18:26:48.114Z,12.95
2023-03-19T18:29:16.443Z,13.50
2023-03-19T18:31:49.496Z,15.57
2023-03-19T18:34:17.628Z,15.82
2023-03-19T18:36:44.480Z,19.23
2023-03-19T18:39:14.124Z,15.25
2023-03-19T18:41:41.654Z,15.50
2023-03-19T18:44:09.258Z,19.05
2023-03-19T18:46:38.206Z,21.33
2023-03-19T18:49:14.689Z,21.67
2023-03-19T18:51:54.883Z,18.02
2023-03-19T18:54:27.759Z,14.68
2023-03-19T18:56:56.246Z,17.23
2023-03-19T18:59:27.961Z,18.55
2023-03-19T19:02:14.899Z,23.58
2023-03-19T19:04:41.898Z,19.02
2023-03-19T19:07:13.812Z,15.85
2023-03-19T19:09:40.512Z,19.63
2023-03-19T19:12:09.467Z,25.05
2023-03-19T19:14:36.499Z,25.95
2023-03-19T19:17:03.364Z,27.55
2023-03-19T19:19:30.005Z,21.90
2023-03-19T19:21:56.892Z,27.63
2023-03-19T19:24:23.729Z,28.92
2023-03-19T19:26:53.892Z,20.90
2023-03-19T19:29:26.661Z,23.52
2023-03-19T19:31:54.657Z,25.85
2023-03-19T19:34:22.597Z,27.45
2023-03-19T19:36:51.037Z,42.83
2023-03-19T19:39:18.319Z,44.92
2023-03-19T19:41:46.777Z,47.95
2023-03-19T19:44:21.938Z,38.40
2023-03-19T19:46:50.491Z,57.83
2023-03-19T19:49:22.618Z,52.67
2023-03-19T19:51:49.556Z,49.00
2023-03-19T19:54:16.414Z,40.28
2023-03-19T19:56:43.494Z,33.00
2023-03-19T19:59:14.866Z,29.75
2023-03-19T20:01:41.610Z,29.33
2023-03-19T20:04:13.926Z,34.15
2023-03-19T20:09:08.045Z,24.40
2023-03-19T20:11:34.847Z,27.08
2023-03-19T20:14:02.050Z,28.20
2023-03-19T20:16:28.848Z,26.52
2023-03-19T20:18:55.792Z,22.60
2023-03-19T20:21:23.112Z,18.77
2023-03-19T20:23:55.711Z,29.85
2023-03-19T20:26:24.853Z,28.92
2023-03-19T20:28:52.175Z,30.98
2023-03-19T20:31:29.937Z,26.42
2023-03-19T20:33:57.826Z,30.70
2023-03-19T20:36:24.671Z,24.52
2023-03-19T20:38:52.679Z,29.38
2023-03-19T20:41:24.545Z,25.48
2023-03-19T20:43:51.934Z,30.90
2023-03-19T20:46:20.583Z,23.92
2023-03-19T20:48:48.117Z,24.55
2023-03-19T20:51:33.271Z,34.30
2023-03-19T20:54:00.135Z,36.47
2023-03-19T20:56:27.192Z,29.65
2023-03-19T20:58:53.918Z,29.48
2023-03-19T21:01:21.776Z,35.83
2023-03-19T21:03:48.502Z,35.33
2023-03-19T21:06:21.270Z,36.03
2023-03-19T21:08:51.670Z,42.85
2023-03-19T21:11:21.292Z,34.25
2023-03-19T21:13:50.069Z,41.55
2023-03-19T21:16:22.920Z,33.97
2023-03-19T21:18:50.051Z,37.00
2023-03-19T21:21:17.756Z,32.60
2023-03-19T21:23:54.344Z,31.05
2023-03-19T21:26:24.295Z,31.23
2023-03-19T21:29:00.325Z,38.15
2023-03-19T21:31:27.433Z,31.05
2023-03-19T21:33:55.844Z,29.13
2023-03-19T21:36:23.852Z,31.77
2023-03-19T21:38:52.550Z,30.90
2023-03-19T21:41:26.100Z,34.30
2023-03-19T21:43:56.266Z,30.63
2023-03-19T21:46:29.657Z,29.67
2023-03-19T21:48:57.916Z,25.42
2023-03-19T21:51:26.668Z,21.67
2023-03-19T21:53:53.259Z,17.52
2023-03-19T21:56:25.585Z,19.98
2023-03-19T22:01:23.713Z,29.27
2023-03-19T22:03:54.958Z,29.92
2023-03-19T22:06:22.171Z,24.13
2023-03-19T22:08:49.022Z,35.30
2023-03-19T22:11:20.128Z,24.83
2023-03-19T22:13:47.653Z,26.15
2023-03-19T22:16:23.225Z,33.72
2023-03-19T22:18:50.831Z,38.47
2023-03-19T22:21:20.846Z,50.55
2023-03-19T22:23:47.990Z,34.20
2023-03-19T22:26:30.891Z,24.85
2023-03-19T22:29:00.774Z,30.85
2023-03-19T22:31:27.891Z,37.33
2023-03-19T22:33:54.870Z,29.27
2023-03-19T22:36:21.524Z,34.17
2023-03-19T22:38:49.410Z,22.52
2023-03-19T22:41:27.381Z,24.23
2023-03-19T22:43:54.924Z,18.15
2023-03-19T22:46:22.155Z,14.60
2023-03-19T22:48:52.896Z,16.63
2023-03-19T22:51:22.652Z,16.90
2023-03-19T22:53:49.894Z,21.17
2023-03-19T22:56:17.521Z,14.15
2023-03-19T22:58:44.411Z,11.95
2023-03-19T23:01:23.629Z,18.10
2023-03-19T23:03:51.027Z,16.10
2023-03-19T23:06:29.639Z,15.30
2023-03-19T23:08:57.848Z,14.48
2023-03-19T23:11:24.616Z,10.85
2023-03-19T23:13:51.666Z,13.27
2023-03-19T23:16:23.989Z,10.95
2023-03-19T23:18:51.437Z,11.95
2023-03-19T23:21:19.494Z,13.93
2023-03-19T23:23:46.822Z,13.68
2023-03-19T23:26:30.170Z,10.02
2023-03-19T23:28:59.990Z,10.40
2023-03-19T23:31:26.615Z,13.65
2023-03-19T23:33:53.461Z,13.45
2023-03-19T23:36:20.485Z,9.18
2023-03-19T23:38:47.574Z,9.80
2023-03-19T23:41:22.436Z,10.85
2023-03-19T23:43:49.081Z,9.70
2023-03-19T23:46:16.122Z,10.77
2023-03-19T23:48:42.763Z,14.35
2023-03-19T23:51:14.300Z,13.55
2023-03-19T23:53:42.105Z,22.00
2023-03-19T23:56:22.642Z,14.05
2023-03-19T23:58:51.625Z,17.98
